Time;durP1;ratioP1;P1;durP2;ratioP2;P2;SDS_P1;SDS_P2;PMS_P1;PMS_P2;Temp;Humidity;BMP_temperature;BMP_pressure;BME280_temperature;BME280_humidity;BME280_pressure;Samples;Min_cycle;Max_cycle;Signal;HPM_P1;HPM_P2
2023/01/19 00:01:34;;;;;;;13.97;6.50;;;;;;;-1.64;98.56;99700.06;5038501;28;20443;-80
2023/01/19 00:04:01;;;;;;;18.50;7.40;;;;;;;-1.58;98.36;99702.56;5038250;28;20530;-80
2023/01/19 00:06:27;;;;;;;14.93;6.90;;;;;;;-1.56;97.40;99703.09;5037655;28;21065;-80
2023/01/19 00:08:54;;;;;;;24.73;7.37;;;;;;;-1.59;97.17;99710.78;5038021;28;20511;-80
2023/01/19 00:11:21;;;;;;;20.80;7.33;;;;;;;-1.59;97.22;99716.09;5038333;28;20937;-80
2023/01/19 00:13:49;;;;;;;17.33;6.30;;;;;;;-1.58;97.64;99715.03;5038284;28;20482;-79
2023/01/19 00:16:17;;;;;;;13.60;6.20;;;;;;;-1.53;97.57;99717.75;5038734;28;20941;-79
2023/01/19 00:18:43;;;;;;;15.60;7.07;;;;;;;-1.60;96.74;99711.81;5038685;28;20538;-79
2023/01/19 00:21:10;;;;;;;23.20;7.00;;;;;;;-1.64;96.24;99710.66;5039038;28;20518;-80
2023/01/19 00:23:37;;;;;;;15.37;7.20;;;;;;;-1.70;95.62;99717.75;5039291;28;20467;-79
2023/01/19 00:26:04;;;;;;;19.70;7.77;;;;;;;-1.80;95.80;99720.25;5042255;28;20483;-80
2023/01/19 00:28:30;;;;;;;15.20;6.93;;;;;;;-1.89;95.18;99727.81;5044511;28;20441;-79
2023/01/19 00:30:58;;;;;;;16.40;7.00;;;;;;;-1.88;95.68;99720.66;5044494;28;20473;-80
2023/01/19 00:33:25;;;;;;;17.23;6.30;;;;;;;-1.96;94.40;99724.50;5044919;28;20477;-79
2023/01/19 00:35:53;;;;;;;13.97;5.40;;;;;;;-1.92;94.79;99728.28;5044567;28;21017;-80
2023/01/19 00:38:20;;;;;;;13.90;5.67;;;;;;;-1.90;94.84;99728.06;5052300;28;20455;-79
2023/01/19 00:40:47;;;;;;;13.30;5.60;;;;;;;-1.94;94.51;99730.38;5057120;28;20454;-79
2023/01/19 00:43:12;;;;;;;17.10;5.00;;;;;;;-1.95;95.46;99731.41;5055414;28;20499;-79
2023/01/19 00:45:39;;;;;;;10.43;5.40;;;;;;;-1.99;96.29;99732.13;5046073;28;20514;-79
2023/01/19 00:48:07;;;;;;;10.80;4.17;;;;;;;-1.88;96.22;99732.06;5041819;28;20219;-79
2023/01/19 00:50:34;;;;;;;12.63;4.83;;;;;;;-1.84;96.36;99730.56;5042769;28;20843;-79
2023/01/19 00:53:01;;;;;;;11.40;4.00;;;;;;;-1.80;96.35;99736.19;5043805;28;20474;-79
2023/01/19 00:55:29;;;;;;;10.57;4.50;;;;;;;-1.73;96.31;99738.66;5043228;28;20443;-79
2023/01/19 00:57:56;;;;;;;17.73;5.20;;;;;;;-1.70;96.07;99744.31;5043640;28;20439;-79
2023/01/19 01:00:23;;;;;;;11.70;5.13;;;;;;;-1.81;96.05;99743.34;5043967;28;20549;-79
2023/01/19 01:02:52;;;;;;;12.57;5.00;;;;;;;-1.76;96.06;99744.47;5043253;28;20481;-79
2023/01/19 01:05:20;;;;;;;10.43;4.77;;;;;;;-1.78;96.88;99745.50;5043803;28;20483;-79
2023/01/19 01:07:48;;;;;;;15.33;4.60;;;;;;;-1.73;97.47;99755.41;5043655;28;20453;-79
2023/01/19 01:10:17;;;;;;;12.43;4.80;;;;;;;-1.67;97.74;99748.34;5043117;28;20467;-79
2023/01/19 01:12:44;;;;;;;9.30;4.50;;;;;;;-1.63;97.70;99750.28;5042920;28;20455;-79
2023/01/19 01:15:12;;;;;;;14.20;6.20;;;;;;;-1.60;96.80;99754.28;5043038;28;20474;-79
2023/01/19 01:17:45;;;;;;;13.27;5.40;;;;;;;-1.54;97.12;99758.63;5042416;28;20445;-79
2023/01/19 01:20:16;;;;;;;9.50;4.33;;;;;;;-1.59;96.78;99756.72;5042260;28;20455;-79
2023/01/19 01:22:46;;;;;;;13.40;5.03;;;;;;;-1.62;96.79;99753.72;5042311;28;20447;-79
2023/01/19 01:25:13;;;;;;;11.87;5.07;;;;;;;-1.58;96.74;99750.34;5041923;28;20530;-79
2023/01/19 01:27:41;;;;;;;13.83;5.37;;;;;;;-1.51;96.67;99755.47;5041691;28;20515;-79
2023/01/19 01:30:10;;;;;;;16.10;4.70;;;;;;;-1.59;96.29;99753.25;5041691;28;20474;-79
2023/01/19 01:32:37;;;;;;;10.83;4.87;;;;;;;-1.63;97.04;99760.88;5041762;28;20541;-79
2023/01/19 01:35:05;;;;;;;11.60;5.37;;;;;;;-1.63;97.85;99763.53;5041838;28;20530;-79
2023/01/19 01:37:32;;;;;;;9.97;5.00;;;;;;;-1.61;97.16;99765.94;5040686;28;20488;-79
2023/01/19 01:40:00;;;;;;;12.97;4.73;;;;;;;-1.50;97.22;99767.72;5042952;28;20519;-79
2023/01/19 01:42:28;;;;;;;9.83;4.53;;;;;;;-1.47;96.05;99769.09;5056522;22;20490;-67
2023/01/19 01:44:56;;;;;;;11.07;4.57;;;;;;;-1.50;95.73;99757.13;5035294;28;20427;-67
2023/01/19 01:47:30;;;;;;;9.77;3.97;;;;;;;-1.51;95.72;99755.47;5035277;28;20574;-67
2023/01/19 01:50:05;;;;;;;12.67;4.77;;;;;;;-1.50;96.11;99772.25;5035473;28;20422;-67
2023/01/19 01:52:34;;;;;;;8.50;4.53;;;;;;;-1.53;95.53;99768.22;5035366;28;20455;-67
2023/01/19 01:55:05;;;;;;;10.80;4.60;;;;;;;-1.50;95.81;99767.72;5034970;28;20962;-67
2023/01/19 01:57:34;;;;;;;13.00;6.07;;;;;;;-1.47;95.67;99769.88;5035147;28;20467;-67
2023/01/19 02:00:02;;;;;;;11.53;4.77;;;;;;;-1.46;95.77;99763.56;5035156;28;20431;-67
2023/01/19 02:05:21;;;;;;;14.50;6.30;;;;;;;-1.45;95.76;99759.84;5034838;28;20411;-67
2023/01/19 02:13:25;;;;;;;11.20;5.63;;;;;;;-1.32;97.03;99764.81;5034809;28;20457;-67
2023/01/19 02:15:53;;;;;;;12.47;5.37;;;;;;;-1.43;95.02;99759.59;5034936;28;20471;-66
2023/01/19 02:18:21;;;;;;;12.37;5.37;;;;;;;-1.43;95.37;99763.03;5034337;28;20471;-67
2023/01/19 02:20:57;;;;;;;13.43;5.10;;;;;;;-1.42;94.88;99756.69;5034774;28;20835;-67
2023/01/19 02:23:37;;;;;;;12.90;5.23;;;;;;;-1.39;94.51;99761.50;5034800;28;20514;-67
2023/01/19 02:26:06;;;;;;;26.90;5.90;;;;;;;-1.40;93.95;99753.81;5034677;28;20471;-69
2023/01/19 02:28:33;;;;;;;16.03;5.70;;;;;;;-1.38;94.44;99752.50;5034273;28;20489;-69
2023/01/19 02:31:00;;;;;;;14.70;5.80;;;;;;;-1.36;95.22;99749.63;5034669;28;20443;-68
2023/01/19 02:33:26;;;;;;;10.23;5.30;;;;;;;-1.34;95.08;99750.16;5034672;28;20449;-68
2023/01/19 02:35:55;;;;;;;13.67;5.53;;;;;;;-1.34;94.48;99745.66;5034310;28;20595;-69
2023/01/19 02:38:24;;;;;;;13.10;6.17;;;;;;;-1.33;95.95;99754.41;5034403;28;20463;-66
2023/01/19 02:40:55;;;;;;;13.63;5.50;;;;;;;-1.30;97.10;99754.75;5034372;28;20872;-67
2023/01/19 02:43:23;;;;;;;13.03;6.20;;;;;;;-1.28;96.89;99755.31;5033979;28;20889;-67
2023/01/19 02:45:50;;;;;;;12.83;5.47;;;;;;;-1.28;96.83;99749.22;5033967;28;20487;-67
2023/01/19 02:48:20;;;;;;;11.37;6.00;;;;;;;-1.24;97.00;99760.13;5032981;28;20463;-67
2023/01/19 02:50:49;;;;;;;14.10;5.70;;;;;;;-1.21;96.60;99757.78;5034229;28;20522;-67
2023/01/19 02:53:42;;;;;;;14.70;5.93;;;;;;;-1.23;96.74;99762.56;5034179;28;20501;-67
2023/01/19 02:56:28;;;;;;;13.83;5.50;;;;;;;-1.24;96.41;99760.94;5028652;28;20603;-67
2023/01/19 02:59:01;;;;;;;19.43;5.83;;;;;;;-1.26;96.74;99771.00;5034017;28;20558;-67
2023/01/19 03:01:36;;;;;;;18.00;6.20;;;;;;;-1.24;96.78;99760.94;5034078;28;20419;-67
2023/01/19 03:04:13;;;;;;;12.57;6.07;;;;;;;-1.25;96.79;99769.94;5034069;28;20522;-68
2023/01/19 03:06:46;;;;;;;14.33;5.30;;;;;;;-1.34;96.20;99772.22;5033906;28;20485;-68
2023/01/19 03:09:21;;;;;;;18.60;7.03;;;;;;;-1.38;95.88;99768.44;5033578;28;20853;-67
2023/01/19 03:11:54;;;;;;;16.30;4.80;;;;;;;-1.37;94.79;99762.09;5033917;28;20423;-66
2023/01/19 03:14:25;;;;;;;11.10;5.43;;;;;;;-1.32;94.81;99764.03;5033597;28;20994;-66
2023/01/19 03:16:56;;;;;;;14.47;5.23;;;;;;;-1.36;94.94;99762.91;5033799;28;20423;-66
2023/01/19 03:19:26;;;;;;;13.37;5.20;;;;;;;-1.31;95.70;99769.06;5033389;28;20545;-64
2023/01/19 03:21:57;;;;;;;13.60;6.13;;;;;;;-1.38;95.75;99760.47;5033746;28;20427;-66
2023/01/19 03:24:26;;;;;;;14.00;5.67;;;;;;;-1.38;96.01;99760.47;5033638;28;20428;-66
2023/01/19 03:26:59;;;;;;;20.23;7.33;;;;;;;-1.32;96.08;99764.81;5033533;28;20853;-66
2023/01/19 03:29:30;;;;;;;13.60;5.37;;;;;;;-1.34;95.34;99761.59;5033260;28;20495;-66
2023/01/19 03:32:00;;;;;;;11.30;5.20;;;;;;;-1.32;95.72;99759.50;5033625;28;20449;-67
2023/01/19 03:34:28;;;;;;;13.67;6.10;;;;;;;-1.35;95.87;99760.00;5033516;28;20434;-67
2023/01/19 03:36:59;;;;;;;16.43;6.40;;;;;;;-1.38;96.48;99755.16;5033475;28;20526;-66
2023/01/19 03:39:27;;;;;;;14.20;5.00;;;;;;;-1.41;96.37;99760.16;5033383;28;20455;-67
2023/01/19 03:42:01;;;;;;;13.30;5.40;;;;;;;-1.37;96.23;99759.44;5033120;28;20443;-66
2023/01/19 03:44:30;;;;;;;15.40;5.57;;;;;;;-1.37;96.83;99767.41;5033475;28;20463;-66
2023/01/19 03:46:59;;;;;;;15.00;6.50;;;;;;;-1.36;96.99;99769.00;5033195;28;20598;-67
2023/01/19 03:49:26;;;;;;;15.23;7.20;;;;;;;-1.40;97.58;99757.25;5033296;28;20525;-66
2023/01/19 03:51:55;;;;;;;14.53;6.23;;;;;;;-1.39;97.54;99766.81;5033252;28;20443;-66
2023/01/19 03:54:22;;;;;;;11.87;5.37;;;;;;;-1.36;97.29;99762.91;5032975;28;20940;-67
2023/01/19 03:56:48;;;;;;;11.30;5.20;;;;;;;-1.33;97.37;99768.53;5033190;28;20466;-66
2023/01/19 03:59:18;;;;;;;12.13;5.93;;;;;;;-1.33;97.50;99765.03;5032939;28;20889;-67
2023/01/19 04:01:45;;;;;;;16.13;6.37;;;;;;;-1.39;97.30;99772.13;5033440;28;20504;-66
2023/01/19 04:04:12;;;;;;;14.87;6.37;;;;;;;-1.41;97.40;99770.78;5033084;28;20445;-66
2023/01/19 04:06:38;;;;;;;15.60;5.87;;;;;;;-1.44;97.56;99768.59;5033100;28;20482;-66
2023/01/19 04:09:05;;;;;;;13.70;6.57;;;;;;;-1.46;96.19;99763.56;5032723;28;20462;-67
2023/01/19 04:11:32;;;;;;;18.53;6.70;;;;;;;-1.45;97.40;99764.34;5033079;28;20465;-66
2023/01/19 04:13:58;;;;;;;12.77;6.73;;;;;;;-1.43;96.84;99767.56;5032714;28;20983;-66
2023/01/19 04:16:27;;;;;;;19.17;7.07;;;;;;;-1.45;97.36;99762.50;5032961;28;20439;-67
2023/01/19 04:18:55;;;;;;;13.70;6.40;;;;;;;-1.40;97.72;99767.88;5032850;28;20545;-66
2023/01/19 04:21:21;;;;;;;13.77;6.27;;;;;;;-1.40;97.43;99765.22;5032670;28;20493;-67
2023/01/19 04:23:49;;;;;;;16.83;7.17;;;;;;;-1.36;97.02;99763.69;5032889;28;20465;-66
2023/01/19 04:26:17;;;;;;;17.73;6.77;;;;;;;-1.36;97.20;99762.91;5032904;28;20450;-66
2023/01/19 04:28:43;;;;;;;16.27;7.03;;;;;;;-1.46;96.47;99773.34;5032804;28;20469;-66
2023/01/19 04:31:10;;;;;;;16.20;7.47;;;;;;;-1.53;96.59;99760.25;5032873;28;20443;-66
2023/01/19 04:33:38;;;;;;;13.90;6.53;;;;;;;-1.53;96.29;99763.69;5032799;28;20439;-69
2023/01/19 04:36:05;;;;;;;16.17;6.47;;;;;;;-1.56;96.34;99758.06;5032523;28;20823;-68
2023/01/19 04:38:31;;;;;;;19.50;7.53;;;;;;;-1.51;96.31;99766.09;5032777;28;20489;-68
2023/01/19 04:40:58;;;;;;;19.57;8.27;;;;;;;-1.51;96.35;99766.09;5032431;28;20819;-68
2023/01/19 04:43:25;;;;;;;17.90;7.80;;;;;;;-1.51;96.59;99760.78;5032494;28;20553;-69
2023/01/19 04:45:51;;;;;;;11.77;6.10;;;;;;;-1.48;96.18;99762.16;5032661;28;20466;-69
2023/01/19 04:48:19;;;;;;;18.20;7.17;;;;;;;-1.46;96.07;99760.91;5032282;28;21027;-67
2023/01/19 04:50:47;;;;;;;22.77;7.77;;;;;;;-1.52;95.96;99764.50;5032649;28;20825;-67
2023/01/19 04:53:15;;;;;;;19.50;6.63;;;;;;;-1.57;96.58;99767.88;5032764;28;20443;-67
2023/01/19 04:55:41;;;;;;;13.73;7.13;;;;;;;-1.56;96.31;99766.81;5032453;28;20959;-67
2023/01/19 04:58:08;;;;;;;14.93;6.50;;;;;;;-1.54;96.10;99764.75;5032582;28;20551;-67
2023/01/19 05:00:35;;;;;;;14.20;6.97;;;;;;;-1.49;96.13;99773.84;5032557;28;20530;-67
2023/01/19 05:03:02;;;;;;;16.90;6.90;;;;;;;-1.53;96.97;99778.81;5032570;28;20526;-67
2023/01/19 05:05:28;;;;;;;19.87;8.03;;;;;;;-1.48;96.83;99786.06;5032536;28;20490;-67
2023/01/19 05:07:56;;;;;;;15.70;6.63;;;;;;;-1.50;96.35;99778.34;5032356;28;20610;-67
2023/01/19 05:10:23;;;;;;;14.07;7.30;;;;;;;-1.66;96.67;99787.91;5032802;28;20442;-67
2023/01/19 05:12:50;;;;;;;12.00;5.67;;;;;;;-1.56;96.90;99787.25;5036136;28;20443;-67
2023/01/19 05:15:16;;;;;;;17.23;7.67;;;;;;;-1.53;96.03;99789.44;5036087;28;20469;-67
2023/01/19 05:17:43;;;;;;;19.23;7.57;;;;;;;-1.51;96.49;99782.03;5035647;28;20451;-68
2023/01/19 05:20:11;;;;;;;12.90;6.57;;;;;;;-1.53;97.08;99778.81;5035666;28;20961;-68
2023/01/19 05:22:38;;;;;;;16.57;8.10;;;;;;;-1.65;96.53;99792.16;5035941;28;20527;-67
2023/01/19 05:25:08;;;;;;;17.63;6.67;;;;;;;-1.60;97.06;99791.44;5035540;28;20449;-67
2023/01/19 05:27:35;;;;;;;20.10;8.47;;;;;;;-1.54;96.79;99798.47;5035578;28;20486;-67
2023/01/19 05:30:03;;;;;;;13.60;7.50;;;;;;;-1.55;96.68;99796.84;5035788;28;20489;-68
2023/01/19 05:32:30;;;;;;;15.17;7.23;;;;;;;-1.55;97.35;99797.66;5035777;28;20443;-67
2023/01/19 05:34:56;;;;;;;17.50;7.20;;;;;;;-1.57;97.34;99797.09;5035655;28;20445;-67
2023/01/19 05:37:23;;;;;;;17.00;7.17;;;;;;;-1.62;97.53;99806.81;5035228;28;20550;-68
2023/01/19 05:39:49;;;;;;;14.87;7.77;;;;;;;-1.62;97.89;99806.81;5035610;28;20820;-68
2023/01/19 05:42:17;;;;;;;18.53;7.50;;;;;;;-1.67;97.81;99802.22;5035414;28;20474;-68
2023/01/19 05:44:44;;;;;;;14.03;6.27;;;;;;;-1.68;97.99;99802.44;5035266;28;20996;-67
2023/01/19 05:47:10;;;;;;;19.00;8.50;;;;;;;-1.70;98.57;99812.53;5035337;28;20479;-66
2023/01/19 05:49:37;;;;;;;15.43;7.30;;;;;;;-1.69;97.85;99812.28;5035105;28;20471;-71
2023/01/19 05:52:04;;;;;;;11.73;6.40;;;;;;;-1.65;97.89;99807.28;5035313;28;20802;-71
2023/01/19 05:54:30;;;;;;;19.97;7.93;;;;;;;-1.73;97.69;99808.47;5035409;28;20451;-67
2023/01/19 05:56:57;;;;;;;18.77;7.03;;;;;;;-1.69;97.61;99819.44;5035187;28;20438;-64
2023/01/19 05:59:25;;;;;;;17.37;7.17;;;;;;;-1.64;97.12;99817.69;5035146;28;20463;-64
2023/01/19 06:01:52;;;;;;;14.07;7.10;;;;;;;-1.68;96.54;99818.38;5035218;28;20439;-68
2023/01/19 06:04:20;;;;;;;21.20;8.10;;;;;;;-1.63;97.11;99821.16;5035004;28;20439;-67
2023/01/19 06:06:47;;;;;;;14.57;7.33;;;;;;;-1.69;96.50;99817.56;5035029;28;20448;-67
2023/01/19 06:09:14;;;;;;;24.00;8.60;;;;;;;-1.65;96.27;99812.59;5035017;28;20833;-68
2023/01/19 06:11:40;;;;;;;14.70;6.90;;;;;;;-1.65;96.97;99829.34;5035031;28;20439;-67
2023/01/19 06:14:07;;;;;;;15.87;7.20;;;;;;;-1.62;96.54;99823.56;5035027;28;20449;-67
2023/01/19 06:16:35;;;;;;;11.90;6.20;;;;;;;-1.64;96.82;99827.47;5034928;28;20475;-71
2023/01/19 06:19:01;;;;;;;12.80;6.47;;;;;;;-1.65;96.54;99833.84;5034757;28;20525;-67
2023/01/19 06:21:29;;;;;;;25.90;8.63;;;;;;;-1.70;97.86;99831.91;5034822;28;20478;-68
2023/01/19 06:23:55;;;;;;;14.13;6.37;;;;;;;-1.62;98.21;99830.72;5034706;28;20449;-68
2023/01/19 06:26:22;;;;;;;16.33;7.03;;;;;;;-1.59;98.04;99830.25;5034491;28;20549;-67
2023/01/19 06:28:50;;;;;;;13.47;5.90;;;;;;;-1.56;97.79;99824.44;5034239;28;20494;-68
2023/01/19 06:31:17;;;;;;;15.50;7.47;;;;;;;-1.61;97.34;99835.78;5034063;28;20447;-67
2023/01/19 06:33:45;;;;;;;14.33;7.27;;;;;;;-1.60;98.06;99837.38;5034348;28;20436;-68
2023/01/19 06:36:12;;;;;;;17.47;7.93;;;;;;;-1.55;97.88;99836.66;5034262;28;20451;-67
2023/01/19 06:38:39;;;;;;;26.00;9.23;;;;;;;-1.56;97.46;99840.38;5033748;28;20466;-68
2023/01/19 06:41:05;;;;;;;19.00;7.80;;;;;;;-1.60;97.70;99839.22;5034071;28;20447;-67
2023/01/19 06:43:32;;;;;;;11.80;6.13;;;;;;;-1.60;97.58;99841.88;5034017;28;20948;-70
2023/01/19 06:45:59;;;;;;;11.37;5.97;;;;;;;-1.60;97.00;99848.00;5034044;28;20447;-69
2023/01/19 06:48:26;;;;;;;15.03;6.40;;;;;;;-1.61;97.39;99845.59;5033898;28;20922;-67
2023/01/19 06:50:54;;;;;;;14.30;6.93;;;;;;;-1.66;96.87;99842.84;5034124;28;20447;-67
2023/01/19 06:53:21;;;;;;;21.53;6.80;;;;;;;-1.70;97.06;99841.72;5034111;28;20451;-67
2023/01/19 06:55:48;;;;;;;20.57;7.57;;;;;;;-1.74;97.33;99845.91;5034326;28;20443;-67
2023/01/19 06:58:14;;;;;;;19.97;7.87;;;;;;;-1.71;97.39;99853.38;5034096;28;20900;-68
2023/01/19 07:00:41;;;;;;;22.50;9.10;;;;;;;-1.69;97.34;99843.31;5034094;28;20512;-68
2023/01/19 07:03:08;;;;;;;13.70;6.77;;;;;;;-1.69;96.50;99845.97;5034032;28;20447;-68
2023/01/19 07:05:36;;;;;;;19.17;7.77;;;;;;;-1.67;96.49;99850.03;5033583;28;20439;-68
2023/01/19 07:08:04;;;;;;;21.57;8.60;;;;;;;-1.65;96.72;99850.56;5033467;28;20866;-68
2023/01/19 07:10:31;;;;;;;15.27;6.30;;;;;;;-1.66;97.09;99858.78;5033548;28;20986;-67
2023/01/19 07:12:57;;;;;;;18.43;7.50;;;;;;;-1.64;97.04;99854.03;5033735;28;20449;-68
2023/01/19 07:15:24;;;;;;;17.10;7.47;;;;;;;-1.61;96.64;99856.22;5033809;28;20535;-68
2023/01/19 07:17:51;;;;;;;18.43;7.53;;;;;;;-1.60;96.59;99863.94;5033643;28;20463;-67
2023/01/19 07:20:18;;;;;;;14.03;6.40;;;;;;;-1.61;96.72;99867.63;5033752;28;20443;-68
2023/01/19 07:22:45;;;;;;;14.13;7.40;;;;;;;-1.60;96.74;99874.56;5033753;28;20449;-68
2023/01/19 07:25:14;;;;;;;15.53;6.97;;;;;;;-1.60;96.64;99868.44;5033680;28;20454;-68
2023/01/19 07:27:41;;;;;;;15.33;6.73;;;;;;;-1.61;96.18;99862.31;5033402;28;20493;-68
2023/01/19 07:30:09;;;;;;;19.10;8.50;;;;;;;-1.66;96.26;99872.06;5033536;28;20439;-68
2023/01/19 07:32:35;;;;;;;16.73;7.03;;;;;;;-1.68;96.81;99868.81;5033135;28;20483;-68
2023/01/19 07:35:02;;;;;;;16.43;7.20;;;;;;;-1.70;97.51;99874.38;5033078;28;20439;-68
2023/01/19 07:39:54;;;;;;;16.35;6.40;;;;;;;-1.65;97.32;99861.19;5054411;22;20498;-66
2023/01/19 07:42:22;;;;;;;14.80;7.27;;;;;;;-1.65;96.72;99869.16;5033393;28;20291;-66
2023/01/19 07:44:48;;;;;;;13.50;7.47;;;;;;;-1.64;96.28;99873.44;5033368;28;20435;-65
2023/01/19 07:47:15;;;;;;;12.87;6.40;;;;;;;-1.67;96.71;99883.72;5032894;28;21011;-66
2023/01/19 07:49:41;;;;;;;12.23;6.90;;;;;;;-1.63;96.67;99883.00;5033320;28;20562;-66
2023/01/19 07:52:08;;;;;;;22.90;7.50;;;;;;;-1.62;96.01;99887.28;5033327;28;20530;-66
2023/01/19 07:54:35;;;;;;;25.23;6.80;;;;;;;-1.68;95.96;99893.53;5033308;28;20534;-66
2023/01/19 07:57:01;;;;;;;15.50;7.07;;;;;;;-1.73;96.13;99895.28;5033009;28;20982;-65
2023/01/19 07:59:31;;;;;;;18.20;7.50;;;;;;;-1.73;95.63;99896.06;5032727;28;20459;-66
2023/01/19 08:01:58;;;;;;;16.40;6.50;;;;;;;-1.63;96.08;99906.09;5033194;28;20500;-66
2023/01/19 08:04:25;;;;;;;12.33;5.87;;;;;;;-1.58;95.88;99901.69;5033127;28;20454;-66
2023/01/19 08:06:51;;;;;;;17.93;7.50;;;;;;;-1.52;96.01;99898.06;5032753;28;20959;-66
2023/01/19 08:09:18;;;;;;;24.60;6.70;;;;;;;-1.48;95.19;99898.41;5032919;28;20577;-65
2023/01/19 08:11:45;;;;;;;14.30;6.30;;;;;;;-1.41;95.15;99909.69;5033378;28;20450;-66
2023/01/19 08:14:11;;;;;;;14.93;5.60;;;;;;;-1.41;94.60;99904.38;5033044;28;20443;-66
2023/01/19 08:16:39;;;;;;;24.47;6.70;;;;;;;-1.38;95.05;99909.19;5032649;28;20538;-66
2023/01/19 08:19:06;;;;;;;16.57;7.07;;;;;;;-1.34;95.40;99913.00;5032981;28;20566;-66
2023/01/19 08:21:34;;;;;;;14.37;6.20;;;;;;;-1.25;94.71;99909.94;5032931;28;20461;-66
2023/01/19 08:24:01;;;;;;;15.40;6.77;;;;;;;-1.16;94.34;99911.16;5032910;28;20443;-66
2023/01/19 08:26:30;;;;;;;12.80;5.53;;;;;;;-1.13;94.03;99910.69;5032853;28;20447;-66
2023/01/19 08:28:57;;;;;;;11.80;5.70;;;;;;;-1.08;93.73;99910.78;5032670;28;20486;-65
2023/01/19 08:31:25;;;;;;;16.80;6.50;;;;;;;-1.05;93.27;99903.13;5032787;28;20443;-66
2023/01/19 08:33:53;;;;;;;14.70;6.53;;;;;;;-1.02;94.07;99912.44;5032451;28;20454;-65
2023/01/19 08:36:20;;;;;;;15.37;6.10;;;;;;;-0.91;94.10;99908.91;5032598;28;20455;-65
2023/01/19 08:38:47;;;;;;;15.43;7.03;;;;;;;-0.87;93.87;99904.72;5032413;28;20561;-66
2023/01/19 08:41:15;;;;;;;14.87;5.90;;;;;;;-0.81;93.06;99910.94;5032750;28;20804;-66
2023/01/19 08:43:42;;;;;;;14.77;5.93;;;;;;;-0.74;93.02;99916.09;5032736;28;20541;-66
2023/01/19 08:46:09;;;;;;;12.10;5.63;;;;;;;-0.75;91.94;99915.28;5034228;28;20449;-65
2023/01/19 08:48:35;;;;;;;12.33;6.00;;;;;;;-0.72;91.65;99913.97;5036137;28;20527;-65
2023/01/19 08:51:03;;;;;;;15.17;7.17;;;;;;;-0.67;92.16;99914.06;5036469;28;20435;-66
2023/01/19 08:53:30;;;;;;;14.57;6.13;;;;;;;-0.61;91.81;99924.53;5036132;28;21022;-64
2023/01/19 08:56:00;;;;;;;12.60;6.30;;;;;;;-0.52;92.08;99924.94;5036533;28;20450;-63
2023/01/19 08:58:27;;;;;;;15.90;6.00;;;;;;;-0.47;92.23;99919.69;5036382;28;20554;-66
2023/01/19 09:00:53;;;;;;;13.37;5.50;;;;;;;-0.45;92.47;99919.44;5036445;28;20542;-70
2023/01/19 09:03:21;;;;;;;15.83;6.47;;;;;;;-0.43;91.58;99922.66;5036030;28;20606;-66
2023/01/19 09:05:49;;;;;;;15.73;5.43;;;;;;;-0.37;90.77;99925.13;5036761;28;20447;-66
2023/01/19 09:08:17;;;;;;;13.73;5.20;;;;;;;-0.36;89.75;99926.72;5036097;28;20509;-66
2023/01/19 09:10:46;;;;;;;13.97;6.37;;;;;;;-0.35;89.72;99932.88;5036202;28;20525;-65
2023/01/19 09:13:13;;;;;;;10.70;5.37;;;;;;;-0.28;90.08;99931.63;5035794;28;20447;-64
2023/01/19 09:15:41;;;;;;;13.87;6.17;;;;;;;-0.18;90.63;99940.81;5035749;28;20529;-65
2023/01/19 09:18:12;;;;;;;13.50;5.70;;;;;;;-0.09;91.02;99942.81;5035687;28;20462;-65
2023/01/19 09:20:41;;;;;;;10.40;4.70;;;;;;;0.02;91.01;99940.28;5035976;28;20432;-66
2023/01/19 09:23:09;;;;;;;12.53;5.30;;;;;;;-0.01;89.04;99939.72;5035960;28;20866;-64
2023/01/19 09:25:38;;;;;;;16.60;5.53;;;;;;;0.05;88.56;99937.94;5035915;28;20518;-64
2023/01/19 09:28:05;;;;;;;13.70;5.60;;;;;;;0.09;89.67;99940.88;5035768;28;20499;-65
2023/01/19 09:30:32;;;;;;;18.37;6.23;;;;;;;0.09;89.81;99944.38;5035995;28;20537;-63
2023/01/19 09:33:02;;;;;;;13.90;4.77;;;;;;;0.18;89.54;99942.88;5035644;28;20493;-64
2023/01/19 09:35:30;;;;;;;13.40;5.13;;;;;;;0.20;89.31;99943.44;5035753;28;20439;-65
2023/01/19 09:37:57;;;;;;;15.90;5.30;;;;;;;0.22;88.99;99933.34;5035383;28;20483;-64
2023/01/19 09:40:24;;;;;;;15.20;6.70;;;;;;;0.30;89.08;99933.94;5035504;28;20434;-65
2023/01/19 09:42:58;;;;;;;10.10;4.70;;;;;;;0.36;88.29;99935.63;5035583;28;20443;-65
2023/01/19 09:45:33;;;;;;;13.07;5.30;;;;;;;0.43;87.57;99937.03;5035271;28;20522;-66
2023/01/19 09:48:02;;;;;;;13.03;5.20;;;;;;;0.45;87.50;99926.13;5035326;28;20893;-66
2023/01/19 09:50:35;;;;;;;12.40;5.50;;;;;;;0.48;87.64;99930.94;5035218;28;20443;-70
2023/01/19 09:53:12;;;;;;;15.43;7.70;;;;;;;0.47;87.07;99932.00;5035217;28;20436;-69
2023/01/19 09:55:41;;;;;;;14.23;5.43;;;;;;;0.58;86.71;99931.06;5035365;28;20467;-67
2023/01/19 09:58:15;;;;;;;14.07;6.20;;;;;;;0.64;87.68;99935.38;5034626;28;20505;-66
2023/01/19 10:00:46;;;;;;;13.57;5.90;;;;;;;0.72;87.34;99932.28;5035336;28;20489;-67
2023/01/19 10:03:16;;;;;;;16.80;5.93;;;;;;;0.77;85.91;99938.72;5034984;28;20923;-66
2023/01/19 10:05:46;;;;;;;10.90;4.57;;;;;;;0.80;86.64;99931.03;5035216;28;20435;-65
2023/01/19 10:08:21;;;;;;;12.33;4.70;;;;;;;0.88;86.96;99932.41;5034980;28;20859;-65
2023/01/19 10:10:53;;;;;;;16.03;5.57;;;;;;;0.87;86.39;99931.59;5034704;28;20854;-66
2023/01/19 10:13:33;;;;;;;16.63;6.13;;;;;;;0.94;86.63;99934.88;5035150;28;20499;-67
2023/01/19 10:16:09;;;;;;;10.43;4.47;;;;;;;0.88;85.07;99932.41;5035280;28;20497;-68
2023/01/19 10:18:46;;;;;;;13.97;5.23;;;;;;;0.92;85.46;99931.66;5034683;28;20459;-68
2023/01/19 10:21:19;;;;;;;15.50;4.17;;;;;;;1.00;85.88;99925.84;5034685;28;20533;-67
2023/01/19 10:23:49;;;;;;;12.40;4.57;;;;;;;1.08;85.87;99918.47;5034549;28;20438;-66
2023/01/19 10:26:18;;;;;;;11.30;4.37;;;;;;;1.11;85.09;99924.09;5034658;28;20454;-66
2023/01/19 10:28:49;;;;;;;10.00;4.50;;;;;;;1.18;84.15;99930.00;5034705;28;20566;-66
2023/01/19 10:31:21;;;;;;;14.43;4.10;;;;;;;1.25;84.55;99930.59;5034696;28;20515;-67
2023/01/19 10:33:48;;;;;;;13.07;4.40;;;;;;;1.31;84.58;99923.44;5034597;28;20451;-67
2023/01/19 10:36:20;;;;;;;10.40;4.37;;;;;;;1.38;83.80;99928.56;5034517;28;20486;-67
2023/01/19 10:38:48;;;;;;;11.13;4.90;;;;;;;1.48;83.51;99928.63;5034131;28;20518;-67
2023/01/19 10:41:21;;;;;;;13.00;5.60;;;;;;;1.55;83.84;99923.88;5034470;28;20435;-67
2023/01/19 10:43:49;;;;;;;12.07;5.30;;;;;;;1.65;83.85;99923.91;5034058;28;20514;-67
2023/01/19 10:46:33;;;;;;;9.70;5.33;;;;;;;1.70;84.00;99920.47;5034669;28;20889;-67
2023/01/19 10:49:00;;;;;;;12.40;4.57;;;;;;;1.79;82.35;99923.47;5034198;28;20582;-67
2023/01/19 10:51:27;;;;;;;15.27;6.23;;;;;;;1.86;82.18;99916.84;5034409;28;20530;-67
2023/01/19 10:54:00;;;;;;;9.93;4.03;;;;;;;1.88;82.28;99919.22;5034116;28;20443;-68
2023/01/19 10:56:31;;;;;;;12.40;4.20;;;;;;;1.90;81.27;99917.09;5034293;28;20534;-68
2023/01/19 10:59:02;;;;;;;11.10;4.70;;;;;;;1.94;82.49;99920.84;5033881;28;20458;-66
2023/01/19 11:01:29;;;;;;;11.63;4.10;;;;;;;1.94;82.78;99916.31;5033936;28;20495;-66
2023/01/19 11:04:04;;;;;;;10.67;4.73;;;;;;;1.96;82.11;99900.84;5034053;28;20869;-66
2023/01/19 11:06:32;;;;;;;12.10;5.43;;;;;;;1.98;80.61;99911.25;5033755;28;20446;-66
2023/01/19 11:09:16;;;;;;;12.50;4.83;;;;;;;2.03;81.44;99904.06;5033080;28;20498;-66
2023/01/19 11:11:45;;;;;;;13.03;4.30;;;;;;;2.09;81.23;99906.78;5033627;28;20469;-66
2023/01/19 11:14:17;;;;;;;13.33;5.27;;;;;;;2.21;81.05;99899.31;5033910;28;20518;-66
2023/01/19 11:16:47;;;;;;;12.03;5.40;;;;;;;2.32;80.70;99902.84;5033842;28;20449;-66
2023/01/19 11:19:27;;;;;;;12.73;4.30;;;;;;;2.34;79.25;99888.13;5033719;28;20459;-66
2023/01/19 11:22:08;;;;;;;14.13;5.50;;;;;;;2.41;79.78;99893.25;5033450;28;20948;-66
2023/01/19 11:24:37;;;;;;;10.80;5.00;;;;;;;2.46;80.16;99896.72;5033759;28;20434;-66
2023/01/19 11:27:04;;;;;;;11.20;4.87;;;;;;;2.51;80.88;99893.25;5033365;28;20946;-66
2023/01/19 11:29:32;;;;;;;10.33;4.60;;;;;;;2.63;80.26;99890.34;5033535;28;20486;-67
2023/01/19 11:32:11;;;;;;;13.53;5.13;;;;;;;2.73;80.23;99891.16;5033610;28;20435;-66
2023/01/19 11:34:38;;;;;;;13.77;5.70;;;;;;;2.76;77.85;99890.63;5035139;28;20469;-66
2023/01/19 11:37:23;;;;;;;14.07;5.20;;;;;;;2.90;77.90;99887.41;5038172;28;20449;-68
2023/01/19 11:39:52;;;;;;;15.73;5.43;;;;;;;3.00;77.72;99882.06;5040568;28;20522;-66
2023/01/19 11:42:20;;;;;;;16.83;5.33;;;;;;;3.10;78.25;99876.72;5040779;28;20447;-67
2023/01/19 11:44:58;;;;;;;10.83;3.60;;;;;;;3.28;77.78;99870.81;5040912;28;20438;-68